Historyczne dane pomiarowe

Dodano dane terminowe – wersja testowa.

Dane z okresu 1951-2019

Wersja bazy: 1.34 [2019-03-16, lista zmian], aktualizacja planowana na 2019-04-15

Dane meteo z obszaru Polski uzyskane na podstawie danych udostępnionych przez Instytut Meteorologii i Gospodarki Wodnej – Państwowy Instytut Badawczy.

 

Wybierz Datę:    

       

TemperaturaWilgotnośćWiatrCiśnienieOpadyŚniegCzas trwania zjawisk
 Stacja t tx tn tng RH VA  wxwx mslp ppp RRR   cm mm wxwxwxwxwxwxwx
1970-05-15 9.8 15.1 8.0--- 6.0 2.3---- 0.0------------
1970-05-16 7.3 15.9 2.9--- 4.7 3.0---- 0.0------------
1970-05-17 7.7 14.2 1.0--- 2.0 3.3---- 0.0------------
1970-05-18 11.5 19.7 1.7--- 3.3 2.3---- 0.0------------
1970-05-19 10.1 16.9 2.8--- 7.0 3.0---- 1.2------------
1970-05-20 9.3 14.0 7.5--- 7.3 3.3---- 0.0------------
1970-05-21 10.5 14.7 7.7--- 8.0 3.3---- 0.4------------
1970-05-22 9.4 14.1 8.0--- 5.7 5.0---- 0.0------------
1970-05-23 8.8 11.3 5.4--- 8.0 4.0---- 1.0------------
1970-05-24 9.4 15.7 2.4--- 3.3 3.3---- 0.0------------
1970-05-25 12.9 19.7 -1.5--- 6.7 2.0---- 0.0------------
1970-05-26 10.3 18.4 4.9--- 8.0 3.0---- 6.9------------
1970-05-27 9.8 12.7 5.6--- 8.0 2.3---- 6.8------------
1970-05-28 13.3 18.2 8.3--- 7.3 1.3---- 6.1------------
1970-05-29 11.0 15.8 9.5--- 8.0 1.3---- 4.8------------
1970-05-30 11.0 14.4 7.5--- 8.0 3.3---- 1.7------------
1970-05-31 11.3 14.6 6.0--- 6.7 3.7---- 2.6------------
1970-06-01 9.0 12.3 7.3--- 8.0 2.7---- 0.5------------
1970-06-02 9.8 11.1 6.7--- 8.0 3.3---- 0.2------------
1970-06-03 9.8 14.6 6.9--- 5.3 3.7---- 0.0------------
1970-06-04 13.1 17.3 3.6--- 8.0 5.7---- 0.0------------
1970-06-05 17.1 22.7 13.2--- 6.0 4.0---- 6.3------------
1970-06-06 17.1 21.9 10.5--- 6.0 3.7---- 0.0------------
1970-06-07 18.4 25.4 11.6--- 5.7 3.0---- 10.6------------
1970-06-08 19.2 25.7 11.7--- 4.7 3.3---- 0.0------------
1970-06-09 17.6 25.8 12.7--- 5.0 2.3---- 9.8------------
1970-06-10 19.6 24.8 12.7--- 6.0 2.7---- 0.0------------
1970-06-11 18.4 23.6 14.1--- 6.3 2.7---- 0.0------------
1970-06-12 13.3 21.2 8.0--- 2.3 5.7---- 2.8------------
1970-06-13 8.6 9.0 5.9--- 8.0 4.3---- 11.4------------
238.4 ms

 

Źródłem pochodzenia danych jest Instytut Meteorologii i Gospodarki Wodnej – Państwowy Instytut Badawczy. Dane Instytutu Meteorologii i Gospodarki Wodnej – Państwowego Instytutu Badawczego zostały przetworzone.

Dane źródłowe można odnaleźć na stronie https://dane.imgw.pl